createdAt,value
2018-08-09T00:00:41.333Z,54.40
2018-08-09T00:04:14.586Z,54.60
2018-08-09T00:07:47.828Z,54.90
2018-08-09T00:11:21.061Z,55.20
2018-08-09T00:14:54.299Z,55.40
2018-08-09T00:18:27.520Z,55.70
2018-08-09T00:22:00.752Z,56.00
2018-08-09T00:25:34.004Z,56.40
2018-08-09T00:29:07.236Z,56.80
2018-08-09T00:32:40.523Z,57.00
2018-08-09T00:36:13.780Z,57.40
2018-08-09T00:39:47.010Z,57.30
2018-08-09T00:43:20.237Z,57.10
2018-08-09T00:46:53.471Z,56.80
2018-08-09T00:50:26.704Z,56.90
2018-08-09T00:53:59.928Z,56.80
2018-08-09T00:57:33.168Z,56.80
2018-08-09T01:01:06.707Z,56.80
2018-08-09T01:04:39.948Z,56.90
2018-08-09T01:08:13.172Z,57.00
2018-08-09T01:11:46.399Z,57.00
2018-08-09T01:15:19.637Z,57.00
2018-08-09T01:18:52.928Z,57.10
2018-08-09T01:22:26.170Z,57.30
2018-08-09T01:25:59.459Z,57.30
2018-08-09T01:29:32.708Z,57.50
2018-08-09T01:33:06.453Z,57.60
2018-08-09T01:36:39.720Z,57.70
2018-08-09T01:40:12.960Z,57.90
2018-08-09T01:43:52.269Z,58.00
2018-08-09T01:47:25.475Z,58.00
2018-08-09T01:50:58.696Z,58.10
2018-08-09T01:54:31.921Z,58.30
2018-08-09T01:58:05.163Z,58.50
2018-08-09T02:01:38.390Z,58.70
2018-08-09T02:05:11.634Z,59.00
2018-08-09T02:08:45.224Z,59.10
2018-08-09T02:12:18.473Z,59.20
2018-08-09T02:15:51.703Z,59.20
2018-08-09T02:19:25.005Z,59.30
2018-08-09T02:22:58.178Z,59.30
2018-08-09T02:26:31.430Z,59.30
2018-08-09T02:30:05.676Z,59.50
2018-08-09T02:33:38.913Z,60.00
2018-08-09T02:37:12.158Z,60.80
2018-08-09T02:40:45.375Z,60.60
2018-08-09T02:44:18.600Z,60.60
2018-08-09T02:47:51.832Z,60.70
2018-08-09T02:51:25.182Z,61.60
2018-08-09T02:54:58.418Z,61.30
2018-08-09T02:58:31.628Z,61.80
2018-08-09T03:02:04.880Z,62.00
2018-08-09T03:05:38.103Z,62.10
2018-08-09T03:09:13.153Z,62.50
2018-08-09T03:12:46.380Z,62.80
2018-08-09T03:16:19.611Z,63.00
2018-08-09T03:19:52.856Z,63.40
2018-08-09T03:23:26.132Z,63.50
2018-08-09T03:26:59.372Z,64.00
2018-08-09T03:30:32.628Z,64.50
2018-08-09T03:34:05.884Z,65.10
2018-08-09T03:37:39.127Z,65.40
2018-08-09T03:41:12.361Z,65.80
2018-08-09T03:44:45.578Z,65.90
2018-08-09T03:48:18.779Z,65.80
2018-08-09T03:51:52.006Z,65.70
2018-08-09T03:55:25.276Z,65.60
2018-08-09T03:58:58.492Z,65.50
2018-08-09T04:02:31.712Z,65.60
2018-08-09T04:06:04.973Z,65.60
2018-08-09T04:09:38.202Z,65.70
2018-08-09T04:13:11.408Z,66.00
2018-08-09T04:16:44.637Z,66.30
2018-08-09T04:20:17.860Z,66.50
2018-08-09T04:23:51.063Z,66.60
2018-08-09T04:27:24.300Z,66.60
2018-08-09T04:30:57.539Z,66.60
2018-08-09T04:34:30.834Z,66.70
2018-08-09T04:38:04.163Z,66.80
2018-08-09T04:41:37.343Z,66.70
2018-08-09T04:45:10.594Z,66.90
2018-08-09T04:48:43.798Z,67.00
2018-08-09T04:52:17.008Z,67.10
2018-08-09T04:55:50.228Z,67.10
2018-08-09T04:59:23.450Z,67.00
2018-08-09T05:02:56.676Z,67.20
2018-08-09T05:06:29.908Z,67.50
2018-08-09T05:10:09.273Z,67.60
2018-08-09T05:13:42.453Z,67.60
2018-08-09T05:17:15.680Z,67.80
2018-08-09T05:20:48.910Z,67.70
2018-08-09T05:24:22.125Z,67.80
2018-08-09T05:27:55.328Z,67.70
2018-08-09T05:31:28.560Z,67.30
2018-08-09T05:35:01.780Z,66.90
2018-08-09T05:38:34.986Z,66.40
2018-08-09T05:42:08.203Z,66.20
2018-08-09T05:45:41.426Z,65.90
2018-08-09T05:49:14.635Z,65.70
2018-08-09T05:52:47.942Z,65.50
2018-08-09T05:56:21.082Z,65.30
2018-08-09T05:59:54.323Z,64.40
2018-08-09T06:03:27.541Z,64.00
2018-08-09T06:07:00.764Z,62.30
2018-08-09T06:10:34.001Z,61.00
2018-08-09T06:14:08.388Z,60.50
2018-08-09T06:17:41.595Z,60.20
2018-08-09T06:21:14.890Z,59.80
2018-08-09T06:24:48.109Z,59.10
2018-08-09T06:28:21.328Z,58.40
2018-08-09T06:31:54.628Z,57.60
2018-08-09T06:35:27.860Z,57.20
2018-08-09T06:39:01.085Z,56.70
2018-08-09T06:42:34.299Z,56.20
2018-08-09T06:46:07.528Z,56.00
2018-08-09T06:49:40.736Z,55.50
2018-08-09T06:53:13.952Z,55.10
2018-08-09T06:56:47.144Z,54.60
2018-08-09T07:00:20.384Z,54.30
2018-08-09T07:03:53.608Z,54.10
2018-08-09T07:07:26.816Z,53.90
2018-08-09T07:11:00.038Z,53.60
2018-08-09T07:14:33.236Z,53.40
2018-08-09T07:18:06.474Z,53.20
2018-08-09T07:21:39.712Z,52.80
2018-08-09T07:25:12.920Z,52.40
2018-08-09T07:28:46.136Z,52.20
2018-08-09T07:32:19.356Z,51.70
2018-08-09T07:35:52.569Z,51.40
2018-08-09T07:39:25.929Z,51.20
2018-08-09T07:42:59.051Z,50.90
2018-08-09T07:46:32.258Z,50.40
2018-08-09T07:50:06.400Z,50.30
2018-08-09T07:53:40.067Z,50.30
2018-08-09T07:57:13.289Z,50.00
2018-08-09T08:00:46.664Z,49.50
2018-08-09T08:04:20.017Z,49.10
2018-08-09T08:07:53.527Z,48.60
2018-08-09T08:11:26.853Z,48.60
2018-08-09T08:15:00.140Z,48.50
2018-08-09T08:18:33.308Z,47.70
2018-08-09T08:22:06.587Z,47.30
2018-08-09T08:25:39.786Z,47.20
2018-08-09T08:29:13.126Z,46.50
2018-08-09T08:32:46.341Z,46.00
2018-08-09T08:36:19.540Z,45.60
2018-08-09T08:39:52.758Z,45.40
2018-08-09T08:43:25.969Z,45.30
2018-08-09T08:46:59.185Z,44.70
2018-08-09T08:50:32.408Z,44.20
2018-08-09T08:54:05.615Z,43.80
2018-08-09T08:57:38.867Z,43.10
2018-08-09T09:01:12.109Z,42.90
2018-08-09T09:04:45.333Z,42.30
2018-08-09T09:08:18.541Z,42.10
2018-08-09T09:11:51.814Z,42.00
2018-08-09T09:15:25.076Z,41.70
2018-08-09T09:18:58.323Z,41.10
2018-08-09T09:22:31.540Z,40.70
2018-08-09T09:26:04.778Z,40.50
2018-08-09T09:29:38.936Z,40.10
2018-08-09T09:33:12.143Z,39.30
2018-08-09T09:36:45.352Z,38.90
2018-08-09T09:40:18.557Z,38.60
2018-08-09T09:43:51.907Z,38.10
2018-08-09T09:47:25.127Z,37.40
2018-08-09T09:50:58.340Z,37.00
2018-08-09T09:54:31.544Z,37.00
2018-08-09T09:58:04.825Z,36.70
2018-08-09T10:01:38.097Z,36.80
2018-08-09T10:05:11.264Z,36.80
2018-08-09T10:08:44.493Z,36.50
2018-08-09T10:12:17.732Z,36.40
2018-08-09T10:15:50.944Z,36.40
2018-08-09T10:19:24.176Z,36.50
2018-08-09T10:22:57.402Z,35.80
2018-08-09T10:26:30.609Z,35.70
2018-08-09T10:30:04.947Z,35.30
2018-08-09T10:33:38.257Z,35.30
2018-08-09T10:37:11.463Z,35.30
2018-08-09T10:40:44.681Z,35.40
2018-08-09T10:44:17.881Z,34.60
2018-08-09T10:47:51.125Z,34.50
2018-08-09T10:51:24.340Z,34.10
2018-08-09T10:54:57.577Z,33.80
2018-08-09T10:58:30.775Z,33.60
2018-08-09T11:02:04.088Z,33.10
2018-08-09T11:05:37.333Z,32.90
2018-08-09T11:09:11.772Z,32.30
2018-08-09T11:12:44.991Z,32.10
2018-08-09T11:16:18.211Z,32.10
2018-08-09T11:19:51.421Z,31.90
2018-08-09T11:23:24.648Z,32.00
2018-08-09T11:26:57.881Z,31.90
2018-08-09T11:30:31.105Z,31.60
2018-08-09T11:34:04.692Z,31.50
2018-08-09T11:37:37.889Z,31.30
2018-08-09T11:41:11.106Z,31.30
2018-08-09T11:44:44.325Z,31.80
2018-08-09T11:48:17.553Z,31.40
2018-08-09T11:51:51.080Z,31.20
2018-08-09T11:55:24.305Z,31.20
2018-08-09T11:58:57.519Z,31.70
2018-08-09T12:02:30.736Z,31.60
2018-08-09T12:06:04.008Z,31.30
2018-08-09T12:09:37.199Z,31.20
2018-08-09T12:13:10.403Z,31.40
2018-08-09T12:16:43.627Z,31.40
2018-08-09T12:20:16.841Z,31.30
2018-08-09T12:23:50.113Z,31.20
2018-08-09T12:27:23.363Z,31.40
2018-08-09T12:30:56.600Z,31.10
2018-08-09T12:34:29.813Z,31.00
2018-08-09T12:38:03.049Z,30.80
2018-08-09T12:41:36.269Z,31.00
2018-08-09T12:45:11.216Z,31.10
2018-08-09T12:48:44.416Z,31.20
2018-08-09T12:52:17.648Z,31.50
2018-08-09T12:55:50.861Z,31.10
2018-08-09T12:59:24.104Z,31.00
2018-08-09T13:02:57.327Z,31.10
2018-08-09T13:06:30.559Z,31.10
2018-08-09T13:10:04.733Z,31.10
2018-08-09T13:13:38.113Z,30.60
2018-08-09T13:17:11.351Z,30.40
2018-08-09T13:20:44.615Z,30.10
2018-08-09T13:24:17.826Z,30.00
2018-08-09T13:27:51.038Z,29.90
2018-08-09T13:31:24.273Z,29.80
2018-08-09T13:34:57.487Z,29.70
2018-08-09T13:38:30.723Z,29.10
2018-08-09T13:42:03.944Z,28.50
2018-08-09T13:45:37.177Z,28.40
2018-08-09T13:49:10.403Z,28.00
2018-08-09T13:52:43.663Z,27.90
2018-08-09T13:56:18.206Z,27.50
2018-08-09T13:59:51.426Z,26.90
2018-08-09T14:03:24.640Z,26.80
2018-08-09T14:06:58.099Z,27.00
2018-08-09T14:10:32.175Z,26.90
2018-08-09T14:14:05.362Z,26.30
2018-08-09T14:17:39.193Z,25.90
2018-08-09T14:21:12.417Z,25.40
2018-08-09T14:24:45.698Z,25.30
2018-08-09T14:28:18.976Z,25.20
2018-08-09T14:31:52.213Z,25.10
2018-08-09T14:35:25.405Z,24.90
2018-08-09T14:38:58.668Z,24.90
2018-08-09T14:42:31.928Z,25.20
2018-08-09T14:46:05.193Z,25.10
2018-08-09T14:49:38.428Z,24.70
2018-08-09T14:53:11.983Z,24.70
2018-08-09T14:56:45.901Z,24.60
2018-08-09T15:00:19.820Z,24.70
2018-08-09T15:03:53.088Z,24.40
2018-08-09T15:07:27.441Z,23.80
2018-08-09T15:11:00.696Z,23.20
2018-08-09T15:14:34.005Z,23.10
2018-08-09T15:18:07.229Z,22.70
2018-08-09T15:21:40.472Z,22.90
2018-08-09T15:25:13.872Z,23.00
2018-08-09T15:28:47.111Z,23.00
2018-08-09T15:32:20.349Z,22.80
2018-08-09T15:35:53.597Z,23.00
2018-08-09T15:39:26.813Z,23.50
2018-08-09T15:43:00.189Z,28.00
2018-08-09T15:46:33.450Z,30.10
2018-08-09T15:50:10.241Z,32.10
2018-08-09T15:53:43.543Z,33.70
2018-08-09T15:57:17.696Z,34.70
2018-08-09T16:00:51.044Z,35.70
2018-08-09T16:04:24.311Z,36.70
2018-08-09T16:07:57.539Z,37.20
2018-08-09T16:11:31.827Z,37.00
2018-08-09T16:15:06.161Z,36.80
2018-08-09T16:18:39.786Z,36.70
2018-08-09T16:22:13.031Z,37.20
2018-08-09T16:25:46.365Z,37.60
2018-08-09T16:29:19.601Z,38.00
2018-08-09T16:32:53.057Z,38.60
2018-08-09T16:36:26.312Z,39.10
2018-08-09T16:39:59.533Z,39.80
2018-08-09T16:43:32.780Z,40.30
2018-08-09T16:47:07.072Z,40.40
2018-08-09T16:50:40.317Z,40.50
2018-08-09T16:54:13.544Z,40.60
2018-08-09T16:57:46.823Z,40.70
2018-08-09T17:01:20.036Z,40.70
2018-08-09T17:04:53.280Z,40.80
2018-08-09T17:08:27.009Z,40.60
2018-08-09T17:12:00.972Z,40.30
2018-08-09T17:15:34.267Z,40.60
2018-08-09T17:19:08.072Z,40.90
2018-08-09T17:22:41.937Z,41.30
2018-08-09T17:26:15.483Z,41.60
2018-08-09T17:29:48.984Z,42.60
2018-08-09T17:33:22.231Z,42.20
2018-08-09T17:36:55.467Z,42.60
2018-08-09T17:40:31.432Z,42.70
2018-08-09T17:44:05.284Z,42.90
2018-08-09T17:47:38.500Z,43.20
2018-08-09T17:51:11.734Z,43.60
2018-08-09T17:54:44.972Z,44.00
2018-08-09T17:58:18.789Z,44.40
2018-08-09T18:01:52.004Z,44.70
2018-08-09T18:05:25.259Z,45.00
2018-08-09T18:08:58.564Z,45.30
2018-08-09T18:12:31.856Z,45.40
2018-08-09T18:16:05.231Z,45.00
2018-08-09T18:19:38.489Z,45.10
2018-08-09T18:23:11.773Z,45.20
2018-08-09T18:26:46.233Z,44.40
2018-08-09T18:30:21.930Z,44.90
2018-08-09T18:33:55.322Z,45.80
2018-08-09T18:37:28.797Z,45.50
2018-08-09T18:41:02.211Z,45.70
2018-08-09T18:44:35.437Z,45.80
2018-08-09T18:48:09.116Z,46.00
2018-08-09T18:51:42.377Z,46.00
2018-08-09T18:55:17.455Z,46.10
2018-08-09T18:58:51.101Z,46.20
2018-08-09T19:02:24.456Z,46.30
2018-08-09T19:05:57.808Z,46.40
2018-08-09T19:09:31.272Z,46.70
2018-08-09T19:13:04.870Z,46.10
2018-08-09T19:16:38.346Z,46.10
2018-08-09T19:20:18.701Z,46.10
2018-08-09T19:23:52.207Z,46.10
2018-08-09T19:28:03.360Z,46.20
2018-08-09T19:31:36.829Z,46.20
2018-08-09T19:35:12.319Z,46.30
2018-08-09T19:38:46.079Z,46.60
2018-08-09T19:42:19.591Z,46.80
2018-08-09T19:45:52.942Z,46.80
2018-08-09T19:49:26.248Z,46.90
2018-08-09T19:52:59.475Z,47.00
2018-08-09T19:56:32.757Z,47.30
2018-08-09T20:00:07.469Z,47.40
2018-08-09T20:03:42.212Z,47.60
2018-08-09T20:07:16.298Z,47.90
2018-08-09T20:10:49.701Z,48.10
2018-08-09T20:14:23.131Z,48.20
2018-08-09T20:17:56.391Z,48.60
2018-08-09T20:21:29.759Z,48.90
2018-08-09T20:25:03.137Z,49.20
2018-08-09T20:28:36.466Z,49.40
2018-08-09T20:32:09.818Z,49.50
2018-08-09T20:35:43.412Z,49.60
2018-08-09T20:39:16.968Z,49.80
2018-08-09T20:42:51.763Z,49.90
2018-08-09T20:46:25.014Z,50.20
2018-08-09T20:49:58.588Z,51.40
2018-08-09T20:53:31.805Z,51.50
2018-08-09T20:57:05.029Z,52.10
2018-08-09T21:00:38.292Z,52.30
2018-08-09T21:04:11.592Z,52.50
2018-08-09T21:07:45.102Z,52.60
2018-08-09T21:11:18.500Z,52.60
2018-08-09T21:14:51.936Z,52.50
2018-08-09T21:18:25.371Z,52.80
2018-08-09T21:21:58.792Z,53.70
2018-08-09T21:25:33.238Z,54.40
2018-08-09T21:29:06.662Z,54.70
2018-08-09T21:32:40.216Z,55.20
2018-08-09T21:36:13.588Z,55.50
2018-08-09T21:39:46.973Z,55.60
2018-08-09T21:43:20.401Z,55.60
2018-08-09T21:46:53.791Z,55.60
2018-08-09T21:50:27.206Z,55.70
2018-08-09T21:54:00.612Z,55.90
2018-08-09T21:57:34.009Z,56.10
2018-08-09T22:01:07.820Z,56.30
2018-08-09T22:04:46.444Z,56.30
2018-08-09T22:08:25.264Z,56.30
2018-08-09T22:12:04.024Z,56.30
2018-08-09T22:15:42.666Z,56.30
2018-08-09T22:19:21.250Z,56.30
2018-08-09T22:22:54.668Z,56.20
2018-08-09T22:26:28.095Z,56.20
2018-08-09T22:30:01.572Z,55.40
2018-08-09T22:33:35.389Z,55.10
2018-08-09T22:37:08.769Z,55.30
2018-08-09T22:40:42.150Z,55.50
2018-08-09T22:44:15.559Z,55.50
2018-08-09T22:47:48.955Z,55.50
2018-08-09T22:51:22.396Z,55.40
2018-08-09T22:54:55.805Z,55.50
2018-08-09T22:58:29.046Z,55.60
2018-08-09T23:02:02.352Z,55.60
2018-08-09T23:05:35.689Z,55.60
2018-08-09T23:09:09.838Z,55.60
2018-08-09T23:12:43.618Z,55.50
2018-08-09T23:16:16.841Z,55.50
2018-08-09T23:19:50.074Z,55.50
2018-08-09T23:23:23.315Z,55.50
2018-08-09T23:26:56.548Z,55.20
2018-08-09T23:30:29.820Z,55.10
2018-08-09T23:34:03.074Z,55.00
2018-08-09T23:37:36.345Z,55.10
2018-08-09T23:41:09.570Z,55.20
2018-08-09T23:44:42.800Z,55.20
2018-08-09T23:48:16.040Z,55.30
2018-08-09T23:51:49.247Z,55.50
2018-08-09T23:55:22.503Z,55.60
2018-08-09T23:58:55.740Z,55.70
